Time;durP1;ratioP1;P1;durP2;ratioP2;P2;SDS_P1;SDS_P2;PMS_P1;PMS_P2;Temp;Humidity;BMP_temperature;BMP_pressure;BME280_temperature;BME280_humidity;BME280_pressure;Samples;Min_cycle;Max_cycle;Signal;HPM_P1;HPM_P2
2023/09/28 00:02:50;;;;;;;10.03;9.43;;;18.20;26.40;;;;;;4989901;28;20538;-78
2023/09/28 00:05:16;;;;;;;9.63;9.03;;;18.20;26.20;;;;;;4996470;28;20448;-78
2023/09/28 00:07:43;;;;;;;10.27;9.47;;;18.20;26.20;;;;;;4979957;28;20192;-78
2023/09/28 00:10:15;;;;;;;9.70;9.20;;;18.20;25.90;;;;;;4996866;28;20182;-78
2023/09/28 00:12:49;;;;;;;9.50;9.00;;;18.20;26.00;;;;;;4996570;28;20429;-77
2023/09/28 00:15:16;;;;;;;9.37;8.67;;;18.20;24.10;;;;;;4997026;28;20453;-78
2023/09/28 00:17:42;;;;;;;9.60;9.07;;;18.20;23.60;;;;;;4978697;28;20467;-78
2023/09/28 00:20:17;;;;;;;9.53;8.90;;;18.20;23.40;;;;;;4980312;28;20417;-78
2023/09/28 00:22:48;;;;;;;9.70;9.20;;;18.20;23.20;;;;;;4996248;28;20972;-79
2023/09/28 00:25:16;;;;;;;10.13;9.50;;;18.30;23.30;;;;;;4997197;28;20512;-78
2023/09/28 00:27:44;;;;;;;9.07;8.63;;;18.30;22.70;;;;;;4996876;28;20890;-77
2023/09/28 00:30:18;;;;;;;8.90;8.40;;;18.30;22.60;;;;;;4996002;28;20417;-78
2023/09/28 00:32:45;;;;;;;9.10;8.60;;;18.30;22.20;;;;;;4996529;28;20877;-79
2023/09/28 00:35:11;;;;;;;9.47;8.77;;;18.30;23.00;;;;;;4996110;28;20448;-78
2023/09/28 00:37:36;;;;;;;8.70;8.20;;;18.30;23.30;;;;;;4996691;28;20428;-78
2023/09/28 00:40:15;;;;;;;8.43;8.03;;;18.40;22.80;;;;;;4996830;28;20509;-79
2023/09/28 00:42:42;;;;;;;9.83;9.30;;;18.30;22.20;;;;;;4978379;28;20577;-78
2023/09/28 00:45:08;;;;;;;8.67;8.17;;;18.30;22.30;;;;;;4996835;28;20500;-78
2023/09/28 00:47:35;;;;;;;8.80;8.10;;;18.30;22.90;;;;;;4996528;28;20418;-78
2023/09/28 00:50:03;;;;;;;9.70;9.20;;;18.30;22.70;;;;;;4997015;28;20461;-76
2023/09/28 00:52:30;;;;;;;8.83;8.37;;;18.40;22.90;;;;;;4979474;28;20516;-78
2023/09/28 00:54:56;;;;;;;9.17;8.60;;;18.40;22.70;;;;;;4996758;28;20432;-78
2023/09/28 00:57:22;;;;;;;9.07;8.63;;;18.40;22.50;;;;;;4997008;28;20420;-77
2023/09/28 00:59:48;;;;;;;9.70;9.10;;;18.40;22.20;;;;;;4995756;28;20480;-78
2023/09/28 01:02:14;;;;;;;9.30;8.80;;;18.40;22.30;;;;;;4997378;28;20790;-78
2023/09/28 01:04:39;;;;;;;10.00;9.50;;;18.40;22.30;;;;;;4978486;28;20206;-77
2023/09/28 01:07:06;;;;;;;9.80;9.20;;;18.30;22.40;;;;;;4996627;28;20179;-78
2023/09/28 01:09:32;;;;;;;9.80;9.30;;;18.30;22.70;;;;;;4979266;28;20258;-78
2023/09/28 01:11:58;;;;;;;9.87;9.17;;;18.30;22.60;;;;;;4996925;28;20452;-77
2023/09/28 01:14:24;;;;;;;10.03;9.43;;;18.20;22.90;;;;;;4982164;28;20681;-78
2023/09/28 01:16:50;;;;;;;9.60;9.10;;;18.20;23.10;;;;;;4983595;28;20280;-77
2023/09/28 01:19:15;;;;;;;9.40;8.90;;;18.20;22.80;;;;;;4983140;28;20457;-79
2023/09/28 01:21:41;;;;;;;10.40;9.80;;;18.10;23.10;;;;;;5000108;28;20190;-78
2023/09/28 01:24:07;;;;;;;8.50;8.10;;;18.10;23.10;;;;;;5000706;28;20202;-77
2023/09/28 01:26:34;;;;;;;9.60;9.10;;;18.10;23.00;;;;;;4978001;28;20210;-77
2023/09/28 01:29:00;;;;;;;9.63;9.13;;;18.20;23.00;;;;;;4981758;28;20254;-77
2023/09/28 01:31:27;;;;;;;10.33;9.53;;;18.20;23.00;;;;;;4996941;28;20432;-77
2023/09/28 01:33:53;;;;;;;10.03;9.40;;;18.20;22.90;;;;;;4978452;28;20248;-76
2023/09/28 01:36:19;;;;;;;8.60;8.10;;;18.20;22.80;;;;;;5010131;23;20500;-77
2023/09/28 01:38:50;;;;;;;9.20;8.80;;;18.20;22.70;;;;;;4979396;28;21011;-78
2023/09/28 01:41:15;;;;;;;9.50;8.90;;;18.20;22.70;;;;;;4978862;28;20178;-75
2023/09/28 01:43:41;;;;;;;9.50;9.00;;;18.10;22.70;;;;;;4997220;28;20475;-78
2023/09/28 01:46:06;;;;;;;9.30;8.90;;;18.10;22.80;;;;;;4999008;28;20260;-78
2023/09/28 01:48:32;;;;;;;8.93;8.43;;;18.10;22.90;;;;;;4998409;28;20188;-78
2023/09/28 01:50:57;;;;;;;9.27;8.70;;;18.10;22.90;;;;;;4980702;28;20188;-77
2023/09/28 01:53:23;;;;;;;10.10;9.50;;;18.10;22.90;;;;;;4998113;28;20182;-77
2023/09/28 01:55:50;;;;;;;9.50;9.00;;;18.10;23.00;;;;;;4979941;28;20218;-77
2023/09/28 01:58:16;;;;;;;9.70;9.20;;;18.00;23.20;;;;;;5001647;28;20309;-77
2023/09/28 02:00:45;;;;;;;9.27;8.77;;;18.00;23.50;;;;;;4984823;28;20440;-78
2023/09/28 02:03:14;;;;;;;10.60;9.93;;;18.00;23.60;;;;;;4999120;28;20523;-76
2023/09/28 02:05:40;;;;;;;10.27;9.67;;;18.00;23.90;;;;;;5002146;28;20516;-77
2023/09/28 02:08:06;;;;;;;9.90;9.40;;;18.00;24.10;;;;;;5005807;28;20420;-77
2023/09/28 02:10:32;;;;;;;11.07;10.37;;;17.90;24.40;;;;;;4987094;28;20186;-78
2023/09/28 02:12:59;;;;;;;10.90;10.17;;;18.00;24.40;;;;;;5003534;28;20178;-77
2023/09/28 02:15:24;;;;;;;9.90;9.40;;;18.00;24.60;;;;;;5001158;28;20429;-77
2023/09/28 02:17:50;;;;;;;10.10;9.50;;;18.00;24.70;;;;;;4998317;28;20436;-78
2023/09/28 02:20:20;;;;;;;10.20;9.60;;;18.00;24.50;;;;;;4998166;28;20185;-77
2023/09/28 02:22:46;;;;;;;9.60;9.10;;;17.90;24.40;;;;;;4980730;28;20293;-77
2023/09/28 02:25:17;;;;;;;10.73;10.13;;;17.90;24.60;;;;;;4995957;28;20925;-77
2023/09/28 02:27:43;;;;;;;10.00;9.50;;;17.90;24.40;;;;;;4997532;28;20444;-77
2023/09/28 02:30:14;;;;;;;10.50;10.00;;;17.90;25.30;;;;;;4997440;28;20475;-78
2023/09/28 02:32:43;;;;;;;10.50;9.80;;;17.90;24.70;;;;;;4996932;28;20460;-78
2023/09/28 02:35:09;;;;;;;9.93;9.33;;;17.90;24.50;;;;;;4995892;28;20908;-77
2023/09/28 02:37:36;;;;;;;9.87;9.37;;;17.90;24.40;;;;;;4997186;28;20547;-77
2023/09/28 02:40:05;;;;;;;10.10;9.40;;;17.90;24.70;;;;;;4996282;28;20917;-77
2023/09/28 02:42:31;;;;;;;10.33;9.83;;;17.90;24.70;;;;;;4995575;28;20960;-77
2023/09/28 02:44:58;;;;;;;9.33;8.83;;;17.80;24.60;;;;;;4990161;28;20786;-77
2023/09/28 02:47:24;;;;;;;10.33;9.73;;;17.80;24.70;;;;;;4998084;28;20491;-76
2023/09/28 02:49:49;;;;;;;10.53;9.73;;;17.80;24.80;;;;;;4994877;28;20437;-77
2023/09/28 02:52:16;;;;;;;10.37;9.77;;;17.80;25.30;;;;;;4994331;28;20186;-77
2023/09/28 02:54:41;;;;;;;10.17;9.60;;;17.80;24.70;;;;;;4976476;28;20623;-77
2023/09/28 02:57:07;;;;;;;9.97;9.50;;;17.80;24.90;;;;;;4994746;28;20457;-77
2023/09/28 02:59:33;;;;;;;9.90;9.43;;;17.80;24.90;;;;;;4994334;28;20263;-77
2023/09/28 03:01:58;;;;;;;9.80;9.30;;;17.80;24.90;;;;;;4994238;28;20292;-77
2023/09/28 03:04:24;;;;;;;10.40;9.80;;;17.90;24.80;;;;;;4993990;28;20210;-76
2023/09/28 03:06:52;;;;;;;10.00;9.40;;;17.80;24.70;;;;;;4975744;28;20245;-77
2023/09/28 03:09:19;;;;;;;11.87;10.97;;;17.80;24.70;;;;;;4993110;28;20241;-77
2023/09/28 03:11:45;;;;;;;10.50;9.90;;;17.80;25.00;;;;;;4993802;28;20431;-76
2023/09/28 03:14:11;;;;;;;10.43;9.90;;;17.80;24.90;;;;;;4992366;28;20437;-77
2023/09/28 03:16:38;;;;;;;11.53;10.73;;;17.80;24.90;;;;;;4993134;28;20441;-77
2023/09/28 03:19:04;;;;;;;10.70;10.10;;;17.90;25.00;;;;;;4993338;28;20425;-77
2023/09/28 03:21:29;;;;;;;10.87;10.27;;;17.90;24.90;;;;;;4993540;28;20508;-77
2023/09/28 03:23:59;;;;;;;11.27;10.50;;;17.80;24.70;;;;;;4992894;28;20229;-76
2023/09/28 03:26:25;;;;;;;10.50;9.90;;;17.80;24.60;;;;;;4975435;28;20478;-76
2023/09/28 03:28:51;;;;;;;10.63;9.80;;;17.80;24.70;;;;;;4992362;28;20965;-76
2023/09/28 03:31:16;;;;;;;10.73;10.10;;;17.80;24.70;;;;;;4992445;28;20433;-77
2023/09/28 03:33:42;;;;;;;9.97;9.47;;;17.80;24.60;;;;;;4992519;28;20183;-77
2023/09/28 03:36:07;;;;;;;10.03;9.60;;;17.80;24.60;;;;;;4975311;28;20198;-77
2023/09/28 03:38:33;;;;;;;10.63;10.00;;;17.90;24.70;;;;;;4992818;28;20182;-76
2023/09/28 03:40:59;;;;;;;12.07;11.37;;;17.80;24.70;;;;;;4975095;28;20216;-76
2023/09/28 03:43:24;;;;;;;10.40;9.90;;;17.80;24.70;;;;;;4992714;28;20210;-76
2023/09/28 03:45:50;;;;;;;10.73;10.13;;;17.90;24.90;;;;;;4992757;28;20220;-75
2023/09/28 03:48:16;;;;;;;11.53;10.73;;;17.90;24.70;;;;;;4975024;28;20256;-77
2023/09/28 03:50:42;;;;;;;11.33;10.83;;;17.90;24.60;;;;;;4975025;28;20465;-76
2023/09/28 03:53:07;;;;;;;11.10;10.50;;;17.80;24.70;;;;;;4992675;28;20186;-76
2023/09/28 03:55:33;;;;;;;11.97;11.27;;;17.80;24.70;;;;;;4992767;28;20433;-77
2023/09/28 03:58:02;;;;;;;10.20;9.70;;;17.80;24.90;;;;;;4978390;28;20229;-76
2023/09/28 04:00:28;;;;;;;10.37;9.77;;;17.80;25.00;;;;;;4974859;28;20189;-76
2023/09/28 04:02:53;;;;;;;10.63;10.03;;;17.80;25.00;;;;;;4993471;28;21030;-76
2023/09/28 04:05:19;;;;;;;11.33;10.63;;;17.80;25.10;;;;;;4992347;28;20266;-76
2023/09/28 04:07:45;;;;;;;11.33;10.63;;;17.80;25.10;;;;;;4992819;28;20202;-76
2023/09/28 04:10:11;;;;;;;10.70;10.20;;;17.90;25.20;;;;;;4993482;28;20178;-79
2023/09/28 04:12:37;;;;;;;11.50;10.77;;;17.80;25.20;;;;;;4994578;28;20976;-77
2023/09/28 04:15:04;;;;;;;10.87;10.27;;;17.80;25.40;;;;;;4994980;28;20174;-78
2023/09/28 04:17:30;;;;;;;11.60;11.00;;;17.80;25.50;;;;;;4993610;28;20821;-78
2023/09/28 04:19:55;;;;;;;12.57;11.87;;;17.80;25.60;;;;;;4976190;28;20440;-77
2023/09/28 04:22:21;;;;;;;12.80;12.10;;;17.80;25.80;;;;;;4975414;28;20432;-77
2023/09/28 04:24:46;;;;;;;12.07;11.27;;;17.80;25.90;;;;;;4994371;28;20284;-77
2023/09/28 04:27:12;;;;;;;11.77;11.17;;;17.70;26.00;;;;;;4999989;28;20225;-77
2023/09/28 04:29:38;;;;;;;10.67;9.80;;;17.70;26.10;;;;;;4984502;28;20285;-76
2023/09/28 04:32:04;;;;;;;11.70;11.10;;;17.70;26.10;;;;;;4998767;28;20241;-77
2023/09/28 04:34:30;;;;;;;11.60;10.90;;;17.70;26.20;;;;;;4994416;28;20464;-77
2023/09/28 04:36:57;;;;;;;12.00;11.20;;;17.70;26.40;;;;;;4994197;28;20743;-77
2023/09/28 04:39:24;;;;;;;11.40;10.70;;;17.70;26.40;;;;;;4993606;28;20818;-77
2023/09/28 04:41:50;;;;;;;10.53;10.03;;;17.70;26.30;;;;;;4976879;28;20901;-77
2023/09/28 04:44:16;;;;;;;12.37;11.77;;;17.70;26.30;;;;;;4994291;28;20773;-77
2023/09/28 04:46:42;;;;;;;11.67;10.97;;;17.70;26.30;;;;;;4975500;28;20965;-75
2023/09/28 04:49:08;;;;;;;12.00;11.30;;;17.70;26.40;;;;;;4980293;28;20182;-77
2023/09/28 04:51:33;;;;;;;11.90;11.10;;;17.70;26.40;;;;;;4980537;28;20944;-78
2023/09/28 04:54:04;;;;;;;11.60;10.93;;;17.70;26.20;;;;;;4997431;28;20197;-78
2023/09/28 04:56:31;;;;;;;10.47;9.87;;;17.70;26.10;;;;;;4997378;28;20684;-77
2023/09/28 04:58:57;;;;;;;11.53;10.73;;;17.70;26.20;;;;;;4996923;28;20456;-75
2023/09/28 05:01:23;;;;;;;12.00;11.00;;;17.70;26.00;;;;;;4978939;28;20433;-76
2023/09/28 05:03:49;;;;;;;11.47;10.87;;;17.70;25.90;;;;;;4996146;28;20212;-76
2023/09/28 05:06:14;;;;;;;10.87;10.17;;;17.70;25.90;;;;;;4996985;28;20209;-76
2023/09/28 05:08:40;;;;;;;11.43;10.63;;;17.70;25.90;;;;;;4996905;28;20196;-76
2023/09/28 05:11:05;;;;;;;10.50;10.00;;;17.70;26.10;;;;;;4988840;28;20182;-76
2023/09/28 05:13:31;;;;;;;11.47;10.57;;;17.70;25.90;;;;;;4995783;28;20196;-75
2023/09/28 05:15:57;;;;;;;11.30;10.60;;;17.70;26.00;;;;;;4978706;28;20297;-76
2023/09/28 05:18:23;;;;;;;11.07;10.20;;;17.70;26.20;;;;;;4979058;28;20865;-76
2023/09/28 05:20:48;;;;;;;11.30;10.70;;;17.80;26.40;;;;;;4995691;28;20220;-77
2023/09/28 05:23:14;;;;;;;13.27;12.43;;;17.80;26.40;;;;;;4995782;28;20468;-76
2023/09/28 05:25:39;;;;;;;12.63;11.93;;;17.70;26.40;;;;;;4979429;28;20240;-76
2023/09/28 05:28:05;;;;;;;13.73;12.63;;;17.70;26.20;;;;;;4995974;28;20196;-76
2023/09/28 05:30:31;;;;;;;11.30;10.50;;;17.80;26.20;;;;;;4995691;28;20185;-76
2023/09/28 05:32:56;;;;;;;11.50;10.70;;;17.80;26.20;;;;;;4994652;28;20198;-76
2023/09/28 05:35:25;;;;;;;11.97;11.33;;;17.80;26.40;;;;;;4995690;28;20244;-75
2023/09/28 05:37:50;;;;;;;12.00;11.30;;;17.80;26.50;;;;;;4994828;28;20570;-76
2023/09/28 05:40:17;;;;;;;11.63;10.93;;;17.80;26.30;;;;;;4977175;28;20499;-76
2023/09/28 05:42:42;;;;;;;12.67;11.73;;;17.80;26.40;;;;;;4994394;28;20432;-75
2023/09/28 05:45:09;;;;;;;12.33;11.63;;;17.80;26.50;;;;;;4994702;28;20174;-75
2023/09/28 05:47:35;;;;;;;12.53;11.70;;;17.80;26.40;;;;;;4976701;28;20673;-76
2023/09/28 05:50:01;;;;;;;11.63;10.93;;;17.80;26.10;;;;;;4993599;28;20777;-76
2023/09/28 05:52:28;;;;;;;12.90;12.10;;;17.80;26.40;;;;;;4994002;28;20204;-76
2023/09/28 05:54:53;;;;;;;11.70;10.90;;;17.80;26.40;;;;;;4981744;28;20944;-77
2023/09/28 05:57:22;;;;;;;11.30;10.60;;;17.80;26.50;;;;;;4983598;28;20484;-76
2023/09/28 05:59:51;;;;;;;11.23;10.63;;;17.80;26.50;;;;;;4994100;28;20550;-76
2023/09/28 06:02:18;;;;;;;11.67;10.93;;;17.80;26.40;;;;;;4993740;28;20428;-75
2023/09/28 06:04:44;;;;;;;11.43;10.73;;;17.80;26.40;;;;;;4994106;28;21029;-76
2023/09/28 06:07:10;;;;;;;10.97;10.07;;;17.80;26.30;;;;;;4976619;28;20457;-76
2023/09/28 06:09:38;;;;;;;10.93;10.33;;;17.80;26.50;;;;;;4995990;28;20194;-75
2023/09/28 06:12:05;;;;;;;12.30;11.50;;;17.80;26.50;;;;;;4996079;28;20182;-75
2023/09/28 06:14:32;;;;;;;12.50;11.70;;;17.80;26.60;;;;;;4994457;28;20443;-75
2023/09/28 06:16:58;;;;;;;12.20;11.30;;;17.80;27.30;;;;;;4994535;28;20463;-77
2023/09/28 06:19:24;;;;;;;12.43;11.20;;;17.80;26.60;;;;;;4976974;28;20487;-76
2023/09/28 06:21:49;;;;;;;12.50;11.80;;;17.80;26.70;;;;;;4993258;28;20445;-76
2023/09/28 06:24:15;;;;;;;11.20;10.53;;;17.80;26.60;;;;;;4993165;28;20629;-76
2023/09/28 06:26:40;;;;;;;11.73;10.83;;;17.80;26.60;;;;;;4993072;28;20229;-76
2023/09/28 06:29:06;;;;;;;11.67;10.80;;;17.90;26.60;;;;;;4993781;28;20190;-77
2023/09/28 06:31:33;;;;;;;11.97;11.07;;;17.80;26.40;;;;;;4993446;28;20193;-76
2023/09/28 06:33:58;;;;;;;12.17;11.13;;;17.90;26.50;;;;;;4993822;28;20425;-76
2023/09/28 06:36:28;;;;;;;11.83;11.13;;;17.90;26.30;;;;;;4993291;28;20483;-76
2023/09/28 06:38:54;;;;;;;12.13;11.13;;;18.00;26.20;;;;;;4994110;28;20534;-76
2023/09/28 06:41:20;;;;;;;12.70;11.70;;;18.00;26.20;;;;;;4975878;28;20437;-76
2023/09/28 06:43:48;;;;;;;12.37;11.47;;;18.00;25.90;;;;;;4992737;28;20531;-76
2023/09/28 06:46:14;;;;;;;12.73;11.73;;;18.10;25.80;;;;;;4993516;28;20201;-75
2023/09/28 06:48:39;;;;;;;11.13;10.33;;;18.00;25.80;;;;;;4993848;28;20456;-76
2023/09/28 06:51:05;;;;;;;12.33;11.53;;;18.00;25.80;;;;;;4994057;28;20729;-76
2023/09/28 06:53:31;;;;;;;12.80;11.80;;;18.00;26.10;;;;;;4975308;28;20216;-76
2023/09/28 06:56:01;;;;;;;11.80;10.87;;;18.00;26.40;;;;;;5001239;28;20520;-75
2023/09/28 06:58:28;;;;;;;12.13;11.43;;;18.00;26.30;;;;;;4995488;28;20198;-77
2023/09/28 07:00:53;;;;;;;15.80;12.17;;;18.00;26.40;;;;;;4994423;28;20425;-76
2023/09/28 07:03:20;;;;;;;13.70;12.43;;;18.00;26.30;;;;;;4993238;28;20583;-77
2023/09/28 07:05:46;;;;;;;11.47;10.77;;;18.00;26.50;;;;;;4993694;28;20206;-77
2023/09/28 07:08:12;;;;;;;12.57;11.57;;;18.10;23.70;;;;;;4987826;28;20428;-76
2023/09/28 07:10:38;;;;;;;11.30;10.70;;;18.10;23.00;;;;;;4993719;28;20429;-75
2023/09/28 07:13:06;;;;;;;11.37;10.73;;;18.20;22.30;;;;;;4975254;28;20459;-77
2023/09/28 07:15:33;;;;;;;11.57;10.87;;;18.30;22.80;;;;;;4976906;28;20444;-76
2023/09/28 07:18:00;;;;;;;12.33;11.57;;;18.30;23.00;;;;;;4976443;28;20500;-76
2023/09/28 07:20:26;;;;;;;10.60;9.90;;;18.40;23.80;;;;;;4996071;28;20430;-77
2023/09/28 07:22:52;;;;;;;11.07;10.23;;;18.50;23.90;;;;;;4994932;28;20819;-75
2023/09/28 07:25:19;;;;;;;10.97;10.27;;;18.50;23.90;;;;;;4995112;28;20429;-77
2023/09/28 07:27:49;;;;;;;10.13;9.37;;;18.60;23.90;;;;;;4994891;28;20584;-77
2023/09/28 07:30:15;;;;;;;10.63;10.00;;;18.60;23.90;;;;;;4970880;28;20512;-75
2023/09/28 07:32:41;;;;;;;11.33;10.43;;;18.60;24.00;;;;;;4997329;28;20421;-77
2023/09/28 07:35:10;;;;;;;11.27;10.37;;;18.60;23.90;;;;;;4982204;28;20421;-77
2023/09/28 07:37:36;;;;;;;11.00;10.40;;;18.60;23.70;;;;;;5010681;23;20249;-77
2023/09/28 07:40:04;;;;;;;13.50;12.40;;;18.70;23.80;;;;;;4994519;28;21032;-78
2023/09/28 07:42:30;;;;;;;12.60;11.80;;;18.60;23.40;;;;;;4977479;28;20437;-78
2023/09/28 07:44:56;;;;;;;12.70;11.67;;;18.70;23.80;;;;;;4996759;28;21003;-79
2023/09/28 07:47:21;;;;;;;12.77;10.90;;;18.70;23.70;;;;;;4998124;28;20453;-79
2023/09/28 07:49:52;;;;;;;12.10;11.20;;;18.70;23.50;;;;;;4995263;28;20259;-79
2023/09/28 07:52:18;;;;;;;11.47;10.60;;;18.80;23.50;;;;;;4974587;28;20533;-80
2023/09/28 07:54:44;;;;;;;11.63;10.93;;;18.80;23.70;;;;;;4999528;28;20436;-79
2023/09/28 07:57:09;;;;;;;10.50;9.80;;;18.80;23.70;;;;;;4981352;28;20786;-80
2023/09/28 07:59:35;;;;;;;11.60;10.80;;;18.90;23.60;;;;;;4986408;28;20228;-79
2023/09/28 08:02:02;;;;;;;12.30;11.23;;;18.90;23.70;;;;;;5001158;28;20182;-79
2023/09/28 08:04:28;;;;;;;12.53;11.83;;;18.80;23.60;;;;;;4981945;28;20479;-79
2023/09/28 08:06:54;;;;;;;12.13;11.23;;;18.90;23.70;;;;;;4981811;28;20477;-79
2023/09/28 08:09:20;;;;;;;11.93;11.03;;;19.00;23.60;;;;;;4980466;28;20182;-79
2023/09/28 08:11:48;;;;;;;11.40;10.57;;;19.00;23.70;;;;;;4980602;28;20435;-79
2023/09/28 08:14:15;;;;;;;12.40;11.53;;;19.00;23.80;;;;;;4980392;28;20190;-79
2023/09/28 08:16:44;;;;;;;13.30;12.30;;;19.10;23.30;;;;;;4981190;28;20445;-79
2023/09/28 08:19:10;;;;;;;13.43;12.50;;;19.10;23.00;;;;;;4996049;28;20433;-79
2023/09/28 08:21:38;;;;;;;12.00;11.30;;;19.10;23.30;;;;;;4977432;28;20437;-78
2023/09/28 08:24:04;;;;;;;13.03;12.17;;;19.10;23.10;;;;;;4993762;28;20469;-79
2023/09/28 08:26:33;;;;;;;14.03;13.20;;;19.20;23.10;;;;;;4995023;28;20437;-79
2023/09/28 08:29:00;;;;;;;13.17;12.37;;;19.20;23.00;;;;;;4980039;28;20520;-79
2023/09/28 08:31:27;;;;;;;13.23;12.40;;;19.30;23.40;;;;;;4978873;28;20459;-79
2023/09/28 08:33:52;;;;;;;14.60;13.50;;;19.30;23.00;;;;;;4996159;28;20421;-79
2023/09/28 08:36:18;;;;;;;13.63;12.73;;;19.30;23.00;;;;;;4995845;28;20449;-79
2023/09/28 08:38:44;;;;;;;13.50;12.60;;;19.30;22.90;;;;;;4978207;28;20208;-79
2023/09/28 08:41:11;;;;;;;11.40;10.70;;;19.30;23.10;;;;;;4996072;28;20554;-79
2023/09/28 08:43:47;;;;;;;14.20;13.20;;;19.40;23.40;;;;;;4979674;28;20457;-79
2023/09/28 08:46:18;;;;;;;14.17;13.17;;;19.40;23.40;;;;;;4996015;28;20448;-79
2023/09/28 08:48:47;;;;;;;15.07;13.97;;;19.40;23.40;;;;;;4996294;28;20918;-79
2023/09/28 08:51:15;;;;;;;14.40;13.40;;;19.40;23.20;;;;;;4996136;28;20422;-79
2023/09/28 08:53:41;;;;;;;14.90;13.90;;;19.60;22.90;;;;;;4997165;28;20508;-79
2023/09/28 08:56:07;;;;;;;13.73;12.70;;;19.90;22.70;;;;;;4996672;28;20445;-79
2023/09/28 08:58:34;;;;;;;13.90;13.00;;;20.10;21.80;;;;;;4979241;28;20833;-79
2023/09/28 09:01:01;;;;;;;12.80;12.00;;;20.30;21.80;;;;;;4997124;28;20488;-79
2023/09/28 09:03:27;;;;;;;14.30;13.00;;;20.50;21.30;;;;;;4996995;28;20488;-79
2023/09/28 09:05:55;;;;;;;14.57;13.17;;;20.80;20.90;;;;;;4979810;28;20425;-80
2023/09/28 09:08:22;;;;;;;13.70;12.80;;;21.00;20.00;;;;;;4997269;28;20425;-79
2023/09/28 09:10:52;;;;;;;12.60;11.87;;;21.10;19.80;;;;;;4979404;28;20430;-79
2023/09/28 09:13:21;;;;;;;12.20;11.60;;;21.30;19.30;;;;;;4996042;28;20801;-79
2023/09/28 09:15:47;;;;;;;14.47;13.40;;;21.40;19.50;;;;;;4997972;28;20813;-79
2023/09/28 09:18:18;;;;;;;13.83;12.83;;;21.50;18.90;;;;;;4998860;28;20421;-79
2023/09/28 09:20:48;;;;;;;13.30;12.50;;;21.70;19.00;;;;;;4999190;28;20183;-79
2023/09/28 09:23:14;;;;;;;12.57;11.87;;;21.80;18.70;;;;;;4998500;28;20457;-79
2023/09/28 09:25:42;;;;;;;12.17;11.57;;;21.90;17.50;;;;;;4998044;28;20802;-79
2023/09/28 09:28:08;;;;;;;12.97;12.07;;;22.10;17.50;;;;;;4980082;28;20420;-78
2023/09/28 09:30:37;;;;;;;13.63;12.30;;;22.20;17.60;;;;;;4978390;28;20440;-79
2023/09/28 09:33:06;;;;;;;13.40;12.50;;;22.30;16.80;;;;;;4997105;28;20184;-79
2023/09/28 09:35:38;;;;;;;12.70;11.77;;;22.40;17.70;;;;;;5001056;28;20523;-79
2023/09/28 09:38:04;;;;;;;12.90;12.10;;;22.50;18.00;;;;;;4982493;28;20477;-79
2023/09/28 09:40:31;;;;;;;13.83;12.93;;;22.50;15.20;;;;;;5000132;28;20438;-79
2023/09/28 09:43:05;;;;;;;11.80;11.13;;;22.60;15.10;;;;;;4982750;28;20693;-79
2023/09/28 09:45:31;;;;;;;12.80;11.80;;;22.70;15.50;;;;;;4983049;28;20524;-79
2023/09/28 09:47:58;;;;;;;12.60;11.70;;;22.70;16.30;;;;;;4999201;28;20433;-79
2023/09/28 09:50:24;;;;;;;14.40;11.97;;;22.80;15.90;;;;;;4982048;28;20559;-79
2023/09/28 09:52:51;;;;;;;12.93;11.83;;;22.80;16.50;;;;;;4982086;28;20424;-79
2023/09/28 09:55:17;;;;;;;11.83;10.83;;;22.90;16.50;;;;;;4982290;28;20428;-79
2023/09/28 09:57:44;;;;;;;12.13;11.23;;;22.90;15.10;;;;;;4981579;28;20437;-79
2023/09/28 10:00:15;;;;;;;12.17;11.40;;;22.90;15.90;;;;;;4982126;28;20228;-79
2023/09/28 10:02:43;;;;;;;12.47;11.43;;;23.00;16.20;;;;;;4981592;28;20436;-79
2023/09/28 10:05:12;;;;;;;12.10;11.30;;;23.10;15.20;;;;;;5000106;28;20417;-79
2023/09/28 10:07:39;;;;;;;13.00;11.80;;;23.10;14.50;;;;;;4999493;28;20543;-81
2023/09/28 10:10:05;;;;;;;12.27;11.37;;;23.20;14.60;;;;;;4981884;28;20417;-79
2023/09/28 10:12:31;;;;;;;12.70;11.80;;;23.20;14.30;;;;;;4981953;28;20432;-79
2023/09/28 10:15:00;;;;;;;11.57;10.87;;;23.30;13.90;;;;;;4981007;28;20429;-79
2023/09/28 10:17:26;;;;;;;11.33;10.53;;;23.30;13.70;;;;;;4974460;28;20448;-79
2023/09/28 10:19:59;;;;;;;11.23;10.63;;;23.40;13.40;;;;;;4999082;28;20433;-79
2023/09/28 10:22:25;;;;;;;9.67;9.17;;;23.40;13.10;;;;;;4999165;28;20809;-79
2023/09/28 10:24:51;;;;;;;10.40;9.80;;;23.40;13.70;;;;;;4981928;28;20457;-79
2023/09/28 10:27:17;;;;;;;11.03;10.20;;;23.50;13.40;;;;;;4998887;28;20296;-79
2023/09/28 10:29:43;;;;;;;10.60;10.07;;;23.60;13.40;;;;;;4980909;28;20193;-79
2023/09/28 10:32:29;;;;;;;12.53;11.53;;;23.60;13.00;;;;;;4980804;28;20428;-79
2023/09/28 10:35:28;;;;;;;11.47;10.57;;;23.70;12.80;;;;;;4998507;28;20189;-79
2023/09/28 10:38:20;;;;;;;11.27;10.30;;;23.80;12.60;;;;;;4977440;28;20567;-79
2023/09/28 10:41:02;;;;;;;11.77;11.07;;;23.90;12.30;;;;;;4993627;28;20433;-79
2023/09/28 10:43:29;;;;;;;12.27;11.37;;;23.90;12.30;;;;;;4991049;28;20465;-79
2023/09/28 10:45:55;;;;;;;12.23;11.33;;;23.90;12.60;;;;;;4998337;28;20814;-79
2023/09/28 10:48:22;;;;;;;14.83;10.23;;;24.00;13.20;;;;;;4997992;28;20848;-79
2023/09/28 10:50:47;;;;;;;11.53;10.70;;;24.00;12.50;;;;;;4998136;28;20798;-79
2023/09/28 10:53:13;;;;;;;12.50;11.60;;;24.00;13.30;;;;;;4980248;28;20437;-79
2023/09/28 10:55:41;;;;;;;15.20;11.60;;;23.90;12.60;;;;;;4981871;28;20559;-79
2023/09/28 10:58:07;;;;;;;10.80;10.20;;;24.00;12.10;;;;;;4982003;28;20213;-79
2023/09/28 11:00:34;;;;;;;11.70;10.90;;;23.90;11.70;;;;;;4980878;28;20437;-78
2023/09/28 11:03:00;;;;;;;9.60;9.10;;;24.00;11.40;;;;;;4980610;28;20468;-79
2023/09/28 11:05:26;;;;;;;10.27;9.67;;;24.10;11.40;;;;;;4999038;28;20595;-81
2023/09/28 11:07:52;;;;;;;9.70;9.20;;;24.00;11.10;;;;;;4981267;28;20441;-80
2023/09/28 11:10:17;;;;;;;9.97;9.40;;;24.00;11.30;;;;;;4981761;28;20430;-80
2023/09/28 11:12:44;;;;;;;9.10;8.60;;;24.00;9.40;;;;;;4980312;28;20198;-79
2023/09/28 11:15:14;;;;;;;8.83;8.23;;;24.00;11.00;;;;;;4981543;28;20680;-79
2023/09/28 11:17:42;;;;;;;9.57;9.07;;;23.90;10.50;;;;;;4980686;28;20475;-80
2023/09/28 11:20:11;;;;;;;9.00;8.50;;;23.90;11.00;;;;;;4998158;28;20423;-80
2023/09/28 11:22:36;;;;;;;9.50;9.00;;;23.90;11.20;;;;;;4980697;28;20466;-80
2023/09/28 11:25:03;;;;;;;10.10;9.60;;;23.80;11.60;;;;;;4998435;28;20457;-80
2023/09/28 11:27:29;;;;;;;9.30;8.90;;;23.70;11.40;;;;;;4998165;28;20213;-81
2023/09/28 11:29:56;;;;;;;9.77;8.90;;;23.70;11.40;;;;;;4980446;28;20444;-80
2023/09/28 11:32:22;;;;;;;9.23;8.70;;;23.60;11.30;;;;;;4981330;28;20429;-80
2023/09/28 11:34:47;;;;;;;10.10;9.47;;;23.60;11.90;;;;;;4998417;28;20459;-80
2023/09/28 11:37:16;;;;;;;9.90;9.40;;;23.50;12.00;;;;;;4980312;28;20457;-79
2023/09/28 11:39:42;;;;;;;10.77;9.43;;;23.50;11.70;;;;;;4996723;28;20708;-80
2023/09/28 11:42:08;;;;;;;8.73;8.30;;;23.60;11.10;;;;;;4980842;28;20425;-80
2023/09/28 11:44:35;;;;;;;8.67;8.27;;;23.60;10.90;;;;;;4981396;28;20484;-80
2023/09/28 11:47:01;;;;;;;8.40;8.00;;;23.60;11.40;;;;;;4981872;28;20441;-80
2023/09/28 11:49:28;;;;;;;10.20;9.60;;;23.60;12.50;;;;;;4975463;28;20425;-80
2023/09/28 11:51:54;;;;;;;9.50;8.90;;;23.50;11.40;;;;;;4982445;28;20509;-80
2023/09/28 11:54:20;;;;;;;10.10;9.50;;;23.50;11.00;;;;;;4999454;28;20441;-80
2023/09/28 11:56:50;;;;;;;9.87;9.27;;;23.50;10.20;;;;;;4997070;28;20211;-79
2023/09/28 11:59:16;;;;;;;8.60;8.10;;;23.50;9.80;;;;;;4981250;28;20433;-79
2023/09/28 12:01:46;;;;;;;9.13;8.43;;;23.50;9.50;;;;;;4980757;28;20421;-79
2023/09/28 12:04:12;;;;;;;9.60;9.10;;;23.50;9.70;;;;;;4998569;28;20461;-79
2023/09/28 12:06:38;;;;;;;9.33;8.83;;;23.60;9.20;;;;;;4980504;28;20507;-79
2023/09/28 12:09:05;;;;;;;9.70;9.10;;;23.70;9.40;;;;;;4997827;28;20166;-79
2023/09/28 12:11:32;;;;;;;9.43;9.00;;;23.70;9.70;;;;;;4981293;28;20997;-79
2023/09/28 12:13:59;;;;;;;9.40;8.90;;;23.70;9.10;;;;;;4998132;28;20424;-79
2023/09/28 12:16:26;;;;;;;9.90;9.40;;;23.70;9.20;;;;;;4980922;28;20448;-79
2023/09/28 12:18:51;;;;;;;9.37;8.87;;;23.80;6.80;;;;;;4986069;28;20423;-79
2023/09/28 12:21:17;;;;;;;8.53;8.13;;;23.80;7.40;;;;;;5002586;28;20429;-79
2023/09/28 12:23:42;;;;;;;8.23;7.83;;;23.80;8.00;;;;;;5000182;28;20229;-79
2023/09/28 12:26:10;;;;;;;9.37;8.67;;;23.90;7.60;;;;;;5001024;28;20214;-79
2023/09/28 12:28:37;;;;;;;9.77;9.07;;;23.90;7.90;;;;;;4987486;28;20186;-79
2023/09/28 12:31:04;;;;;;;9.67;9.10;;;23.90;7.50;;;;;;5004600;28;20417;-79
2023/09/28 12:33:29;;;;;;;8.90;8.40;;;23.90;7.50;;;;;;4979050;28;20452;-79